sensor_id;sensor_type;location;lat;lon;timestamp;pressure;altitude;pressure_sealevel;temperature;humidity
6464;BME280;3265;42.694;23.282;2023-01-30T00:01:14;94866.53;;;-0.41;100.00
6464;BME280;3265;42.694;23.282;2023-01-30T00:03:41;94886.28;;;-0.26;100.00
6464;BME280;3265;42.694;23.282;2023-01-30T00:06:08;94875.44;;;-0.28;100.00
6464;BME280;3265;42.694;23.282;2023-01-30T00:08:37;94860.78;;;-0.43;100.00
6464;BME280;3265;42.694;23.282;2023-01-30T00:11:05;94872.50;;;-0.33;100.00
6464;BME280;3265;42.694;23.282;2023-01-30T00:13:32;94878.34;;;-0.40;100.00
6464;BME280;3265;42.694;23.282;2023-01-30T00:15:59;94862.53;;;-0.62;100.00
6464;BME280;3265;42.694;23.282;2023-01-30T00:18:26;94883.38;;;-0.48;100.00
6464;BME280;3265;42.694;23.282;2023-01-30T00:20:57;94873.16;;;-0.66;100.00
6464;BME280;3265;42.694;23.282;2023-01-30T00:23:25;94883.44;;;-0.58;100.00
6464;BME280;3265;42.694;23.282;2023-01-30T00:25:56;94869.88;;;-0.59;100.00
6464;BME280;3265;42.694;23.282;2023-01-30T00:28:23;94876.88;;;-0.43;100.00
6464;BME280;3265;42.694;23.282;2023-01-30T00:30:51;94877.69;;;-0.42;100.00
6464;BME280;3265;42.694;23.282;2023-01-30T00:33:19;94873.59;;;-0.53;100.00
6464;BME280;3265;42.694;23.282;2023-01-30T00:35:48;94876.16;;;-0.53;100.00
6464;BME280;3265;42.694;23.282;2023-01-30T00:38:16;94873.59;;;-0.53;100.00
6464;BME280;3265;42.694;23.282;2023-01-30T00:40:43;94863.31;;;-0.61;100.00
6464;BME280;3265;42.694;23.282;2023-01-30T00:43:13;94849.75;;;-0.62;100.00
6464;BME280;3265;42.694;23.282;2023-01-30T00:45:58;94862.53;;;-0.62;100.00
6464;BME280;3265;42.694;23.282;2023-01-30T00:48:43;94857.25;;;-0.60;100.00
6464;BME280;3265;42.694;23.282;2023-01-30T00:51:11;94841.34;;;-0.72;100.00
6464;BME280;3265;42.694;23.282;2023-01-30T00:53:38;94850.47;;;-0.69;100.00
6464;BME280;3265;42.694;23.282;2023-01-30T00:56:05;94854.34;;;-0.65;100.00
6464;BME280;3265;42.694;23.282;2023-01-30T00:58:33;94847.44;;;-0.73;100.00
6464;BME280;3265;42.694;23.282;2023-01-30T01:01:00;94844.31;;;-0.67;100.00
6464;BME280;3265;42.694;23.282;2023-01-30T01:03:27;94857.94;;;-0.58;100.00
6464;BME280;3265;42.694;23.282;2023-01-30T01:05:54;94850.41;;;-0.60;100.00
6464;BME280;3265;42.694;23.282;2023-01-30T01:08:21;94850.91;;;-0.74;100.00
6464;BME280;3265;42.694;23.282;2023-01-30T01:10:48;94836.06;;;-0.78;100.00
6464;BME280;3265;42.694;23.282;2023-01-30T01:13:15;94845.00;;;-0.74;100.00
6464;BME280;3265;42.694;23.282;2023-01-30T01:15:43;94848.66;;;-0.77;100.00
6464;BME280;3265;42.694;23.282;2023-01-30T01:18:10;94837.81;;;-0.79;100.00
6464;BME280;3265;42.694;23.282;2023-01-30T01:20:37;94844.50;;;-0.60;100.00
6464;BME280;3265;42.694;23.282;2023-01-30T01:23:04;94843.56;;;-0.59;100.00
6464;BME280;3265;42.694;23.282;2023-01-30T01:25:31;94825.41;;;-0.56;100.00
6464;BME280;3265;42.694;23.282;2023-01-30T01:27:57;94828.84;;;-0.47;100.00
6464;BME280;3265;42.694;23.282;2023-01-30T01:30:24;94814.03;;;-0.44;100.00
6464;BME280;3265;42.694;23.282;2023-01-30T01:32:52;94835.16;;;-0.34;100.00
6464;BME280;3265;42.694;23.282;2023-01-30T01:35:19;94823.72;;;-0.30;100.00
6464;BME280;3265;42.694;23.282;2023-01-30T01:37:46;94816.94;;;-0.39;100.00
6464;BME280;3265;42.694;23.282;2023-01-30T01:40:18;94821.25;;;-0.39;100.00
6464;BME280;3265;42.694;23.282;2023-01-30T01:43:17;94822.28;;;-0.50;100.00
6464;BME280;3265;42.694;23.282;2023-01-30T01:45:44;94817.19;;;-0.50;100.00
6464;BME280;3265;42.694;23.282;2023-01-30T01:48:18;94814.03;;;-0.62;100.00
6464;BME280;3265;42.694;23.282;2023-01-30T01:50:52;94830.81;;;-0.41;100.00
6464;BME280;3265;42.694;23.282;2023-01-30T01:53:28;94821.81;;;-0.45;100.00
6464;BME280;3265;42.694;23.282;2023-01-30T01:56:00;94826.06;;;-0.36;100.00
6464;BME280;3265;42.694;23.282;2023-01-30T01:58:32;94821.41;;;-0.41;100.00
6464;BME280;3265;42.694;23.282;2023-01-30T02:01:00;94817.47;;;-0.53;100.00
6464;BME280;3265;42.694;23.282;2023-01-30T02:03:32;94816.22;;;-0.49;100.00
6464;BME280;3265;42.694;23.282;2023-01-30T02:06:02;94825.53;;;-0.40;100.00
6464;BME280;3265;42.694;23.282;2023-01-30T02:08:33;94829.81;;;-0.23;100.00
6464;BME280;3265;42.694;23.282;2023-01-30T02:11:05;94835.22;;;-0.26;100.00
6464;BME280;3265;42.694;23.282;2023-01-30T02:13:35;94831.66;;;-0.33;100.00
6464;BME280;3265;42.694;23.282;2023-01-30T02:16:03;94813.66;;;-0.49;100.00
6464;BME280;3265;42.694;23.282;2023-01-30T02:18:33;94825.31;;;-0.29;100.00
6464;BME280;3265;42.694;23.282;2023-01-30T02:21:26;94823.25;;;-0.25;100.00
6464;BME280;3265;42.694;23.282;2023-01-30T02:24:19;94814.38;;;-0.39;100.00
6464;BME280;3265;42.694;23.282;2023-01-30T02:27:00;94817.47;;;-0.35;100.00
6464;BME280;3265;42.694;23.282;2023-01-30T02:32:37;94810.59;;;-0.35;100.00
6464;BME280;3265;42.694;23.282;2023-01-30T02:35:13;94824.72;;;-0.23;100.00
6464;BME280;3265;42.694;23.282;2023-01-30T02:37:52;94822.47;;;-0.26;100.00
6464;BME280;3265;42.694;23.282;2023-01-30T02:40:31;94812.34;;;-0.35;100.00
6464;BME280;3265;42.694;23.282;2023-01-30T02:43:12;94824.44;;;-0.37;100.00
6464;BME280;3265;42.694;23.282;2023-01-30T02:45:48;94824.09;;;-0.42;100.00
6464;BME280;3265;42.694;23.282;2023-01-30T02:48:20;94807.75;;;-0.32;100.00
6464;BME280;3265;42.694;23.282;2023-01-30T02:50:52;94798.56;;;-0.42;100.00
6464;BME280;3265;42.694;23.282;2023-01-30T02:53:22;94807.38;;;-0.37;100.00
6464;BME280;3265;42.694;23.282;2023-01-30T02:55:48;94820.16;;;-0.37;100.00
6464;BME280;3265;42.694;23.282;2023-01-30T02:58:17;94829.19;;;-0.42;100.00
6464;BME280;3265;42.694;23.282;2023-01-30T03:01:04;94822.19;;;-0.40;100.00
6464;BME280;3265;42.694;23.282;2023-01-30T03:03:44;94822.84;;;-0.56;100.00
6464;BME280;3265;42.694;23.282;2023-01-30T03:06:23;94821.06;;;-0.64;100.00
6464;BME280;3265;42.694;23.282;2023-01-30T03:09:05;94821.25;;;-0.75;100.00
6464;BME280;3265;42.694;23.282;2023-01-30T03:11:43;94814.69;;;-0.77;100.00
6464;BME280;3265;42.694;23.282;2023-01-30T03:14:16;94809.22;;;-0.82;100.00
6464;BME280;3265;42.694;23.282;2023-01-30T03:16:45;94811.03;;;-0.75;100.00
6464;BME280;3265;42.694;23.282;2023-01-30T03:19:19;94802.72;;;-0.94;100.00
6464;BME280;3265;42.694;23.282;2023-01-30T03:21:47;94803.81;;;-0.97;100.00
6464;BME280;3265;42.694;23.282;2023-01-30T03:24:14;94757.47;;;-1.28;100.00
6464;BME280;3265;42.694;23.282;2023-01-30T03:26:44;94789.75;;;-1.01;100.00
6464;BME280;3265;42.694;23.282;2023-01-30T03:29:12;94797.38;;;-1.01;100.00
6464;BME280;3265;42.694;23.282;2023-01-30T03:31:39;94785.63;;;-0.84;100.00
6464;BME280;3265;42.694;23.282;2023-01-30T03:34:06;94789.34;;;-0.79;100.00
6464;BME280;3265;42.694;23.282;2023-01-30T03:36:34;94770.81;;;-0.81;100.00
6464;BME280;3265;42.694;23.282;2023-01-30T03:39:01;94784.81;;;-0.67;100.00
6464;BME280;3265;42.694;23.282;2023-01-30T03:41:28;94777.88;;;-0.75;100.00
6464;BME280;3265;42.694;23.282;2023-01-30T03:43:55;94779.72;;;-0.85;100.00
6464;BME280;3265;42.694;23.282;2023-01-30T03:46:22;94772.56;;;-0.99;100.00
6464;BME280;3265;42.694;23.282;2023-01-30T03:48:49;94774.66;;;-1.12;100.00
6464;BME280;3265;42.694;23.282;2023-01-30T03:51:16;94770.31;;;-1.02;100.00
6464;BME280;3265;42.694;23.282;2023-01-30T03:53:44;94777.50;;;-1.15;100.00
6464;BME280;3265;42.694;23.282;2023-01-30T03:56:11;94768.75;;;-1.13;100.00
6464;BME280;3265;42.694;23.282;2023-01-30T03:58:38;94760.75;;;-1.18;100.00
6464;BME280;3265;42.694;23.282;2023-01-30T04:01:04;94764.34;;;-1.10;100.00
6464;BME280;3265;42.694;23.282;2023-01-30T04:03:32;94769.47;;;-1.20;100.00
6464;BME280;3265;42.694;23.282;2023-01-30T04:05:58;94755.28;;;-1.23;100.00
6464;BME280;3265;42.694;23.282;2023-01-30T04:08:26;94755.00;;;-1.20;100.00
6464;BME280;3265;42.694;23.282;2023-01-30T04:10:54;94761.72;;;-1.19;100.00
6464;BME280;3265;42.694;23.282;2023-01-30T04:13:21;94761.72;;;-1.19;100.00
6464;BME280;3265;42.694;23.282;2023-01-30T04:15:48;94762.94;;;-1.23;100.00
6464;BME280;3265;42.694;23.282;2023-01-30T04:18:14;94763.22;;;-1.26;100.00
6464;BME280;3265;42.694;23.282;2023-01-30T04:20:41;94740.59;;;-1.38;100.00
6464;BME280;3265;42.694;23.282;2023-01-30T04:23:08;94753.91;;;-1.17;100.00
6464;BME280;3265;42.694;23.282;2023-01-30T04:25:35;94749.53;;;-1.25;100.00
6464;BME280;3265;42.694;23.282;2023-01-30T04:28:03;94755.81;;;-1.19;100.00
6464;BME280;3265;42.694;23.282;2023-01-30T04:30:30;94765.56;;;-1.15;100.00
6464;BME280;3265;42.694;23.282;2023-01-30T04:32:57;94765.56;;;-1.15;100.00
6464;BME280;3265;42.694;23.282;2023-01-30T04:35:24;94759.06;;;-1.09;100.00
6464;BME280;3265;42.694;23.282;2023-01-30T04:37:51;94760.53;;;-1.06;100.00
6464;BME280;3265;42.694;23.282;2023-01-30T04:40:18;94764.06;;;-0.90;100.00
6464;BME280;3265;42.694;23.282;2023-01-30T04:42:44;94760.69;;;-0.90;100.00
6464;BME280;3265;42.694;23.282;2023-01-30T04:45:13;94763.25;;;-0.90;100.00
6464;BME280;3265;42.694;23.282;2023-01-30T04:47:39;94754.72;;;-0.99;100.00
6464;BME280;3265;42.694;23.282;2023-01-30T04:50:08;94747.00;;;-1.07;100.00
6464;BME280;3265;42.694;23.282;2023-01-30T04:52:34;94743.25;;;-1.13;100.00
6464;BME280;3265;42.694;23.282;2023-01-30T04:55:01;94747.47;;;-1.21;100.00
6464;BME280;3265;42.694;23.282;2023-01-30T04:57:29;94738.59;;;-1.17;100.00
6464;BME280;3265;42.694;23.282;2023-01-30T04:59:55;94734.69;;;-1.11;100.00
6464;BME280;3265;42.694;23.282;2023-01-30T05:02:24;94737.97;;;-1.01;100.00
6464;BME280;3265;42.694;23.282;2023-01-30T05:04:50;94739.84;;;-1.03;100.00
6464;BME280;3265;42.694;23.282;2023-01-30T05:07:17;94742.09;;;-1.00;100.00
6464;BME280;3265;42.694;23.282;2023-01-30T05:09:44;94737.75;;;-1.08;100.00
6464;BME280;3265;42.694;23.282;2023-01-30T05:12:11;94731.84;;;-1.08;100.00
6464;BME280;3265;42.694;23.282;2023-01-30T05:14:37;94735.19;;;-1.08;100.00
6464;BME280;3265;42.694;23.282;2023-01-30T05:17:06;94734.38;;;-1.08;100.00
6464;BME280;3265;42.694;23.282;2023-01-30T05:19:34;94732.19;;;-1.03;100.00
6464;BME280;3265;42.694;23.282;2023-01-30T05:22:01;94743.84;;;-1.01;100.00
6464;BME280;3265;42.694;23.282;2023-01-30T05:24:28;94740.53;;;-1.01;100.00
6464;BME280;3265;42.694;23.282;2023-01-30T05:26:55;94746.25;;;-0.99;100.00
6464;BME280;3265;42.694;23.282;2023-01-30T05:29:22;94739.72;;;-1.02;100.00
6464;BME280;3265;42.694;23.282;2023-01-30T05:31:49;94750.56;;;-1.00;100.00
6464;BME280;3265;42.694;23.282;2023-01-30T05:34:15;94752.00;;;-0.97;100.00
6464;BME280;3265;42.694;23.282;2023-01-30T05:36:43;94749.91;;;-1.02;100.00
6464;BME280;3265;42.694;23.282;2023-01-30T05:39:10;94747.19;;;-1.00;100.00
6464;BME280;3265;42.694;23.282;2023-01-30T05:41:37;94751.06;;;-0.96;100.00
6464;BME280;3265;42.694;23.282;2023-01-30T05:44:04;94748.66;;;-0.98;100.00
6464;BME280;3265;42.694;23.282;2023-01-30T05:46:31;94747.19;;;-1.00;100.00
6464;BME280;3265;42.694;23.282;2023-01-30T05:48:58;94744.47;;;-1.07;100.00
6464;BME280;3265;42.694;23.282;2023-01-30T05:51:25;94740.13;;;-1.06;100.00
6464;BME280;3265;42.694;23.282;2023-01-30T05:53:54;94739.66;;;-1.10;100.00
6464;BME280;3265;42.694;23.282;2023-01-30T05:56:21;94756.25;;;-1.06;100.00
6464;BME280;3265;42.694;23.282;2023-01-30T05:58:54;94750.78;;;-1.11;100.00
6464;BME280;3265;42.694;23.282;2023-01-30T06:01:22;94752.81;;;-1.15;100.00
6464;BME280;3265;42.694;23.282;2023-01-30T06:03:49;94765.47;;;-1.23;100.00
6464;BME280;3265;42.694;23.282;2023-01-30T06:06:16;94745.00;;;-1.31;100.00
6464;BME280;3265;42.694;23.282;2023-01-30T06:08:43;94766.88;;;-1.10;100.00
6464;BME280;3265;42.694;23.282;2023-01-30T06:11:12;94765.63;;;-1.06;100.00
6464;BME280;3265;42.694;23.282;2023-01-30T06:13:40;94758.72;;;-0.96;100.00
6464;BME280;3265;42.694;23.282;2023-01-30T06:16:08;94763.06;;;-1.06;100.00
6464;BME280;3265;42.694;23.282;2023-01-30T06:18:36;94748.28;;;-1.21;100.00
6464;BME280;3265;42.694;23.282;2023-01-30T06:21:04;94758.06;;;-1.16;100.00
6464;BME280;3265;42.694;23.282;2023-01-30T06:23:31;94746.03;;;-1.24;100.00
6464;BME280;3265;42.694;23.282;2023-01-30T06:25:58;94749.59;;;-1.34;100.00
6464;BME280;3265;42.694;23.282;2023-01-30T06:28:26;94758.31;;;-1.37;100.00
6464;BME280;3265;42.694;23.282;2023-01-30T06:30:53;94755.28;;;-1.23;100.00
6464;BME280;3265;42.694;23.282;2023-01-30T06:33:20;94750.47;;;-1.26;100.00
6464;BME280;3265;42.694;23.282;2023-01-30T06:35:48;94751.13;;;-1.24;100.00
6464;BME280;3265;42.694;23.282;2023-01-30T06:38:15;94749.59;;;-1.17;100.00
6464;BME280;3265;42.694;23.282;2023-01-30T06:40:43;94754.63;;;-1.25;100.00
6464;BME280;3265;42.694;23.282;2023-01-30T06:43:11;94734.00;;;-1.31;100.00
6464;BME280;3265;42.694;23.282;2023-01-30T06:45:39;94755.06;;;-1.11;100.00
6464;BME280;3265;42.694;23.282;2023-01-30T06:48:06;94759.16;;;-1.19;100.00
6464;BME280;3265;42.694;23.282;2023-01-30T06:50:33;94755.94;;;-1.21;100.00
6464;BME280;3265;42.694;23.282;2023-01-30T06:53:01;94756.00;;;-1.30;100.00
6464;BME280;3265;42.694;23.282;2023-01-30T06:55:29;94761.16;;;-1.40;100.00
6464;BME280;3265;42.694;23.282;2023-01-30T06:58:03;94763.25;;;-1.35;100.00
6464;BME280;3265;42.694;23.282;2023-01-30T07:00:31;94761.09;;;-1.30;100.00
6464;BME280;3265;42.694;23.282;2023-01-30T07:02:59;94756.72;;;-1.38;100.00
6464;BME280;3265;42.694;23.282;2023-01-30T07:05:26;94764.03;;;-1.25;100.00
6464;BME280;3265;42.694;23.282;2023-01-30T07:07:54;94763.78;;;-1.32;100.00
6464;BME280;3265;42.694;23.282;2023-01-30T07:10:21;94766.50;;;-1.33;100.00
6464;BME280;3265;42.694;23.282;2023-01-30T07:12:50;94767.72;;;-1.37;100.00
6464;BME280;3265;42.694;23.282;2023-01-30T07:15:17;94766.00;;;-1.46;100.00
6464;BME280;3265;42.694;23.282;2023-01-30T07:17:44;94768.16;;;-1.42;100.00
6464;BME280;3265;42.694;23.282;2023-01-30T07:20:12;94773.56;;;-1.27;100.00
6464;BME280;3265;42.694;23.282;2023-01-30T07:22:39;94770.13;;;-1.18;100.00
6464;BME280;3265;42.694;23.282;2023-01-30T07:25:07;94771.91;;;-1.19;100.00
6464;BME280;3265;42.694;23.282;2023-01-30T07:27:34;94772.63;;;-1.08;100.00
6464;BME280;3265;42.694;23.282;2023-01-30T07:30:00;94773.72;;;-1.11;100.00
6464;BME280;3265;42.694;23.282;2023-01-30T07:32:27;94776.34;;;-1.03;100.00
6464;BME280;3265;42.694;23.282;2023-01-30T07:34:54;94788.06;;;-0.92;100.00
6464;BME280;3265;42.694;23.282;2023-01-30T07:37:22;94790.50;;;-0.91;100.00
6464;BME280;3265;42.694;23.282;2023-01-30T07:39:50;94789.56;;;-0.90;100.00
6464;BME280;3265;42.694;23.282;2023-01-30T07:42:17;94792.69;;;-0.78;100.00
6464;BME280;3265;42.694;23.282;2023-01-30T07:44:43;94789.03;;;-0.76;100.00
6464;BME280;3265;42.694;23.282;2023-01-30T07:47:10;94788.88;;;-0.74;100.00
6464;BME280;3265;42.694;23.282;2023-01-30T07:49:37;94781.38;;;-0.93;100.00
6464;BME280;3265;42.694;23.282;2023-01-30T07:52:04;94776.88;;;-0.99;100.00
6464;BME280;3265;42.694;23.282;2023-01-30T07:54:32;94784.06;;;-0.95;100.00
6464;BME280;3265;42.694;23.282;2023-01-30T07:56:59;94777.16;;;-0.85;100.00
6464;BME280;3265;42.694;23.282;2023-01-30T07:59:25;94775.91;;;-0.81;100.00
6464;BME280;3265;42.694;23.282;2023-01-30T08:01:52;94753.09;;;-1.00;100.00
6464;BME280;3265;42.694;23.282;2023-01-30T08:04:21;94757.03;;;-1.05;100.00
6464;BME280;3265;42.694;23.282;2023-01-30T08:06:48;94750.03;;;-1.03;100.00
6464;BME280;3265;42.694;23.282;2023-01-30T08:09:14;94753.03;;;-0.90;100.00
6464;BME280;3265;42.694;23.282;2023-01-30T08:11:43;94756.69;;;-0.75;100.00
6464;BME280;3265;42.694;23.282;2023-01-30T08:14:10;94751.50;;;-0.66;100.00
6464;BME280;3265;42.694;23.282;2023-01-30T08:16:37;94760.97;;;-0.58;100.00
6464;BME280;3265;42.694;23.282;2023-01-30T08:19:05;94745.81;;;-0.77;100.00
6464;BME280;3265;42.694;23.282;2023-01-30T08:21:32;94756.47;;;-0.82;100.00
6464;BME280;3265;42.694;23.282;2023-01-30T08:23:58;94753.75;;;-0.98;100.00
6464;BME280;3265;42.694;23.282;2023-01-30T08:26:25;94744.59;;;-0.91;100.00
6464;BME280;3265;42.694;23.282;2023-01-30T08:28:53;94745.75;;;-1.03;100.00
6464;BME280;3265;42.694;23.282;2023-01-30T08:31:21;94743.06;;;-0.84;100.00
6464;BME280;3265;42.694;23.282;2023-01-30T08:33:48;94737.34;;;-0.78;100.00
6464;BME280;3265;42.694;23.282;2023-01-30T08:36:14;94736.06;;;-0.64;100.00
6464;BME280;3265;42.694;23.282;2023-01-30T08:38:41;94727.50;;;-0.55;100.00
6464;BME280;3265;42.694;23.282;2023-01-30T08:41:08;94739.06;;;-0.43;100.00
6464;BME280;3265;42.694;23.282;2023-01-30T08:43:35;94735.06;;;-0.45;100.00
6464;BME280;3265;42.694;23.282;2023-01-30T08:46:03;94725.91;;;-0.56;100.00
6464;BME280;3265;42.694;23.282;2023-01-30T08:48:30;94731.66;;;-0.72;100.00
6464;BME280;3265;42.694;23.282;2023-01-30T08:50:57;94733.28;;;-0.71;100.00
6464;BME280;3265;42.694;23.282;2023-01-30T08:53:24;94725.16;;;-0.66;100.00
6464;BME280;3265;42.694;23.282;2023-01-30T08:55:52;94716.13;;;-0.61;100.00
6464;BME280;3265;42.694;23.282;2023-01-30T08:58:19;94715.31;;;-0.43;100.00
6464;BME280;3265;42.694;23.282;2023-01-30T09:00:46;94723.06;;;-0.53;100.00
6464;BME280;3265;42.694;23.282;2023-01-30T09:03:16;94716.94;;;-0.60;100.00
6464;BME280;3265;42.694;23.282;2023-01-30T09:05:43;94716.59;;;-0.65;100.00
6464;BME280;3265;42.694;23.282;2023-01-30T09:08:10;94711.13;;;-0.70;100.00
6464;BME280;3265;42.694;23.282;2023-01-30T09:10:37;94707.41;;;-0.58;100.00
6464;BME280;3265;42.694;23.282;2023-01-30T09:13:04;94712.34;;;-0.57;100.00
6464;BME280;3265;42.694;23.282;2023-01-30T09:15:31;94710.97;;;-0.69;100.00
6464;BME280;3265;42.694;23.282;2023-01-30T09:17:57;94715.94;;;-0.67;100.00
6464;BME280;3265;42.694;23.282;2023-01-30T09:20:26;94707.47;;;-0.68;100.00
6464;BME280;3265;42.694;23.282;2023-01-30T09:22:53;94713.09;;;-0.82;100.00
6464;BME280;3265;42.694;23.282;2023-01-30T09:25:19;94700.88;;;-0.78;100.00
6464;BME280;3265;42.694;23.282;2023-01-30T09:27:49;94690.97;;;-0.81;100.00
6464;BME280;3265;42.694;23.282;2023-01-30T09:30:17;94713.69;;;-0.70;100.00
6464;BME280;3265;42.694;23.282;2023-01-30T09:32:44;94704.75;;;-0.66;100.00
6464;BME280;3265;42.694;23.282;2023-01-30T09:35:11;94714.09;;;-0.57;100.00
6464;BME280;3265;42.694;23.282;2023-01-30T09:37:45;94706.97;;;-0.45;100.00
6464;BME280;3265;42.694;23.282;2023-01-30T09:40:13;94693.94;;;-0.42;100.00
6464;BME280;3265;42.694;23.282;2023-01-30T09:45:43;94685.97;;;-0.39;100.00
6464;BME280;3265;42.694;23.282;2023-01-30T09:48:16;94671.56;;;-0.48;100.00
6464;BME280;3265;42.694;23.282;2023-01-30T09:51:00;94690.47;;;-0.33;100.00
6464;BME280;3265;42.694;23.282;2023-01-30T09:53:35;94679.63;;;-0.35;100.00
6464;BME280;3265;42.694;23.282;2023-01-30T09:56:04;94671.94;;;-0.43;100.00
6464;BME280;3265;42.694;23.282;2023-01-30T09:58:40;94681.38;;;-0.36;100.00
6464;BME280;3265;42.694;23.282;2023-01-30T10:01:16;94670.00;;;-0.41;100.00
6464;BME280;3265;42.694;23.282;2023-01-30T10:04:00;94668.44;;;-0.34;100.00
6464;BME280;3265;42.694;23.282;2023-01-30T10:06:30;94669.78;;;-0.22;100.00
6464;BME280;3265;42.694;23.282;2023-01-30T10:09:08;94658.16;;;-0.17;100.00
6464;BME280;3265;42.694;23.282;2023-01-30T10:11:45;94649.69;;;-0.17;100.00
6464;BME280;3265;42.694;23.282;2023-01-30T10:14:38;94655.91;;;-0.20;100.00
6464;BME280;3265;42.694;23.282;2023-01-30T10:17:22;94643.13;;;-0.28;100.00
6464;BME280;3265;42.694;23.282;2023-01-30T10:20:19;94639.19;;;-0.48;100.00
6464;BME280;3265;42.694;23.282;2023-01-30T10:23:01;94639.69;;;-0.44;100.00
6464;BME280;3265;42.694;23.282;2023-01-30T10:25:34;94624.06;;;-0.41;100.00
6464;BME280;3265;42.694;23.282;2023-01-30T10:28:08;94627.19;;;-0.55;100.00
6464;BME280;3265;42.694;23.282;2023-01-30T10:30:37;94620.81;;;-0.51;100.00
6464;BME280;3265;42.694;23.282;2023-01-30T10:33:07;94628.47;;;-0.51;100.00
6464;BME280;3265;42.694;23.282;2023-01-30T10:35:41;94605.63;;;-0.61;100.00
6464;BME280;3265;42.694;23.282;2023-01-30T10:38:14;94607.72;;;-0.57;100.00
6464;BME280;3265;42.694;23.282;2023-01-30T10:40:53;94604.06;;;-0.54;100.00
6464;BME280;3265;42.694;23.282;2023-01-30T10:43:26;94597.91;;;-0.69;100.00
6464;BME280;3265;42.694;23.282;2023-01-30T10:45:59;94592.88;;;-0.61;100.00
6464;BME280;3265;42.694;23.282;2023-01-30T10:48:48;94589.91;;;-0.48;100.00
6464;BME280;3265;42.694;23.282;2023-01-30T10:51:26;94591.53;;;-0.39;100.00
6464;BME280;3265;42.694;23.282;2023-01-30T10:53:57;94571.44;;;-0.34;100.00
6464;BME280;3265;42.694;23.282;2023-01-30T10:56:32;94569.91;;;-0.27;100.00
6464;BME280;3265;42.694;23.282;2023-01-30T10:59:06;94567.19;;;-0.26;100.00
6464;BME280;3265;42.694;23.282;2023-01-30T11:01:42;94557.78;;;-0.17;100.00
6464;BME280;3265;42.694;23.282;2023-01-30T11:04:14;94553.78;;;-0.20;100.00
6464;BME280;3265;42.694;23.282;2023-01-30T11:06:46;94544.38;;;-0.19;100.00
6464;BME280;3265;42.694;23.282;2023-01-30T11:09:14;94538.44;;;-0.36;100.00
6464;BME280;3265;42.694;23.282;2023-01-30T11:11:47;94536.69;;;-0.35;100.00
6464;BME280;3265;42.694;23.282;2023-01-30T11:14:15;94532.03;;;-0.40;100.00
6464;BME280;3265;42.694;23.282;2023-01-30T11:16:44;94525.34;;;-0.41;100.00
6464;BME280;3265;42.694;23.282;2023-01-30T11:19:13;94517.84;;;-0.42;100.00
6464;BME280;3265;42.694;23.282;2023-01-30T11:21:40;94515.75;;;-0.55;100.00
6464;BME280;3265;42.694;23.282;2023-01-30T11:24:13;94511.06;;;-0.60;100.00
6464;BME280;3265;42.694;23.282;2023-01-30T11:26:43;94506.97;;;-0.52;100.00
6464;BME280;3265;42.694;23.282;2023-01-30T11:29:24;94499.47;;;-0.46;100.00
6464;BME280;3265;42.694;23.282;2023-01-30T11:31:53;94493.78;;;-0.32;100.00
6464;BME280;3265;42.694;23.282;2023-01-30T11:34:22;94494.28;;;-0.20;100.00
6464;BME280;3265;42.694;23.282;2023-01-30T11:36:49;94499.72;;;-0.15;100.00
6464;BME280;3265;42.694;23.282;2023-01-30T11:39:22;94481.06;;;-0.24;100.00
6464;BME280;3265;42.694;23.282;2023-01-30T11:42:01;94482.81;;;-0.08;100.00
6464;BME280;3265;42.694;23.282;2023-01-30T11:44:32;94477.88;;;-0.10;100.00
6464;BME280;3265;42.694;23.282;2023-01-30T11:47:01;94462.38;;;-0.08;100.00
6464;BME280;3265;42.694;23.282;2023-01-30T11:49:32;94446.75;;;-0.13;100.00
6464;BME280;3265;42.694;23.282;2023-01-30T11:52:02;94451.22;;;0.01;100.00
6464;BME280;3265;42.694;23.282;2023-01-30T11:54:32;94448.84;;;-0.01;100.00
6464;BME280;3265;42.694;23.282;2023-01-30T11:57:04;94446.44;;;0.06;100.00
6464;BME280;3265;42.694;23.282;2023-01-30T11:59:34;94447.72;;;0.18;100.00
6464;BME280;3265;42.694;23.282;2023-01-30T12:02:04;94437.03;;;0.23;99.71
6464;BME280;3265;42.694;23.282;2023-01-30T12:04:42;94433.69;;;0.14;99.13
6464;BME280;3265;42.694;23.282;2023-01-30T12:07:17;94432.69;;;0.23;99.44
6464;BME280;3265;42.694;23.282;2023-01-30T12:09:49;94421.06;;;0.29;99.73
6464;BME280;3265;42.694;23.282;2023-01-30T12:12:30;94421.06;;;0.37;100.00
6464;BME280;3265;42.694;23.282;2023-01-30T12:15:04;94417.06;;;0.34;99.58
6464;BME280;3265;42.694;23.282;2023-01-30T12:17:38;94416.09;;;0.27;99.54
6464;BME280;3265;42.694;23.282;2023-01-30T12:20:14;94394.56;;;0.22;99.37
6464;BME280;3265;42.694;23.282;2023-01-30T12:22:46;94397.44;;;0.19;98.65
6464;BME280;3265;42.694;23.282;2023-01-30T12:25:20;94398.22;;;0.19;100.00
6464;BME280;3265;42.694;23.282;2023-01-30T12:27:56;94383.69;;;0.12;99.09
6464;BME280;3265;42.694;23.282;2023-01-30T12:30:35;94390.41;;;0.13;99.09
6464;BME280;3265;42.694;23.282;2023-01-30T12:33:05;94386.59;;;0.17;99.96
6464;BME280;3265;42.694;23.282;2023-01-30T12:35:46;94382.06;;;0.35;99.63
6464;BME280;3265;42.694;23.282;2023-01-30T12:38:28;94367.72;;;0.34;99.25
6464;BME280;3265;42.694;23.282;2023-01-30T12:41:08;94374.53;;;0.57;99.17
6464;BME280;3265;42.694;23.282;2023-01-30T12:43:51;94380.34;;;0.82;98.92
6464;BME280;3265;42.694;23.282;2023-01-30T12:46:35;94378.41;;;0.84;96.99
6464;BME280;3265;42.694;23.282;2023-01-30T12:49:21;94379.50;;;0.90;96.74
6464;BME280;3265;42.694;23.282;2023-01-30T12:52:07;94373.31;;;0.84;97.00
6464;BME280;3265;42.694;23.282;2023-01-30T12:54:48;94367.22;;;0.85;96.46
6464;BME280;3265;42.694;23.282;2023-01-30T12:57:28;94364.50;;;0.87;95.80
6464;BME280;3265;42.694;23.282;2023-01-30T13:00:25;94354.53;;;0.69;96.82
6464;BME280;3265;42.694;23.282;2023-01-30T13:03:04;94361.06;;;0.64;96.90
6464;BME280;3265;42.694;23.282;2023-01-30T13:05:41;94357.75;;;0.63;96.44
6464;BME280;3265;42.694;23.282;2023-01-30T13:08:30;94353.28;;;0.57;97.01
6464;BME280;3265;42.694;23.282;2023-01-30T13:11:05;94355.81;;;0.65;96.61
6464;BME280;3265;42.694;23.282;2023-01-30T13:13:40;94358.84;;;0.69;96.77
6464;BME280;3265;42.694;23.282;2023-01-30T13:16:18;94353.88;;;0.67;97.15
6464;BME280;3265;42.694;23.282;2023-01-30T13:18:54;94359.28;;;0.80;97.23
6464;BME280;3265;42.694;23.282;2023-01-30T13:21:28;94354.00;;;0.74;96.24
6464;BME280;3265;42.694;23.282;2023-01-30T13:24:16;94356.28;;;0.69;96.29
6464;BME280;3265;42.694;23.282;2023-01-30T13:26:46;94352.44;;;0.65;95.92